createdAt,value
2023-03-07T00:01:27.161Z,7.90
2023-03-07T00:03:54.278Z,8.23
2023-03-07T00:06:21.504Z,8.27
2023-03-07T00:08:53.085Z,7.75
2023-03-07T00:11:19.911Z,8.20
2023-03-07T00:13:46.716Z,9.45
2023-03-07T00:16:16.417Z,7.65
2023-03-07T00:18:43.995Z,7.38
2023-03-07T00:21:13.441Z,7.35
2023-03-07T00:23:42.643Z,7.97
2023-03-07T00:26:20.934Z,8.02
2023-03-07T00:28:50.043Z,7.63
2023-03-07T00:31:17.676Z,7.72
2023-03-07T00:33:44.730Z,7.15
2023-03-07T00:36:16.657Z,8.65
2023-03-07T00:38:45.007Z,8.38
2023-03-07T00:41:14.430Z,8.10
2023-03-07T00:43:41.833Z,9.63
2023-03-07T00:46:09.009Z,9.55
2023-03-07T00:48:37.796Z,10.27
2023-03-07T00:51:06.205Z,9.95
2023-03-07T00:53:33.279Z,10.63
2023-03-07T00:56:01.485Z,10.80
2023-03-07T00:58:32.932Z,9.95
2023-03-07T01:01:00.407Z,11.15
2023-03-07T01:03:27.774Z,11.27
2023-03-07T01:05:55.164Z,11.95
2023-03-07T01:08:22.971Z,11.55
2023-03-07T01:10:49.916Z,10.98
2023-03-07T01:13:18.871Z,11.73
2023-03-07T01:15:46.318Z,11.93
2023-03-07T01:18:13.219Z,12.07
2023-03-07T01:20:41.018Z,12.40
2023-03-07T01:23:08.082Z,12.23
2023-03-07T01:25:40.096Z,13.60
2023-03-07T01:28:08.108Z,12.85
2023-03-07T01:30:34.893Z,13.07
2023-03-07T01:33:03.957Z,13.65
2023-03-07T01:35:36.049Z,13.02
2023-03-07T01:38:02.872Z,13.23
2023-03-07T01:40:30.590Z,13.18
2023-03-07T01:43:22.605Z,14.80
2023-03-07T01:45:51.575Z,12.80
2023-03-07T01:48:19.366Z,14.07
2023-03-07T01:50:48.476Z,14.45
2023-03-07T01:53:15.913Z,14.43
2023-03-07T01:55:43.152Z,13.93
2023-03-07T01:58:15.018Z,14.73
2023-03-07T02:00:44.235Z,13.55
2023-03-07T02:03:10.898Z,13.65
2023-03-07T02:06:04.602Z,15.18
2023-03-07T02:08:33.028Z,13.05
2023-03-07T02:10:59.763Z,12.85
2023-03-07T02:13:29.022Z,14.05
2023-03-07T02:15:56.905Z,13.65
2023-03-07T02:18:28.191Z,13.18
2023-03-07T02:21:03.916Z,15.25
2023-03-07T02:23:40.648Z,13.95
2023-03-07T02:26:12.686Z,13.77
2023-03-07T02:28:42.496Z,13.63
2023-03-07T02:31:10.604Z,13.45
2023-03-07T02:33:38.766Z,14.38
2023-03-07T02:36:11.468Z,14.27
2023-03-07T02:38:45.365Z,18.73
2023-03-07T02:41:12.916Z,15.13
2023-03-07T02:43:39.879Z,14.45
2023-03-07T02:46:07.539Z,14.82
2023-03-07T02:48:34.291Z,16.30
2023-03-07T02:51:01.160Z,15.73
2023-03-07T02:53:28.473Z,16.20
2023-03-07T02:55:55.235Z,16.63
2023-03-07T02:58:22.217Z,16.52
2023-03-07T03:00:49.200Z,16.35
2023-03-07T03:03:15.965Z,16.58
2023-03-07T03:05:42.621Z,17.33
2023-03-07T03:08:09.783Z,17.73
2023-03-07T03:10:36.642Z,16.80
2023-03-07T03:13:03.402Z,18.45
2023-03-07T03:15:30.143Z,16.85
2023-03-07T03:17:57.066Z,17.13
2023-03-07T03:20:25.496Z,17.75
2023-03-07T03:22:53.085Z,18.27
2023-03-07T03:25:23.266Z,19.38
2023-03-07T03:27:50.995Z,18.15
2023-03-07T03:30:17.862Z,18.90
2023-03-07T03:32:45.036Z,19.00
2023-03-07T03:35:14.914Z,19.83
2023-03-07T03:37:42.274Z,19.20
2023-03-07T03:40:14.640Z,19.92
2023-03-07T03:42:43.681Z,19.25
2023-03-07T03:45:11.796Z,20.38
2023-03-07T03:47:38.575Z,21.33
2023-03-07T03:50:06.335Z,18.95
2023-03-07T03:52:35.773Z,21.58
2023-03-07T03:55:02.701Z,20.20
2023-03-07T03:57:29.437Z,20.50
2023-03-07T03:59:56.114Z,19.92
2023-03-07T04:02:23.542Z,20.88
2023-03-07T04:04:50.966Z,19.23
2023-03-07T04:07:17.633Z,19.65
2023-03-07T04:09:45.598Z,18.98
2023-03-07T04:12:12.397Z,20.95
2023-03-07T04:14:40.196Z,20.13
2023-03-07T04:17:07.349Z,19.20
2023-03-07T04:19:34.115Z,18.50
2023-03-07T04:22:01.393Z,18.83
2023-03-07T04:24:28.093Z,19.85
2023-03-07T04:26:54.822Z,17.95
2023-03-07T04:29:21.581Z,18.83
2023-03-07T04:31:55.017Z,17.75
2023-03-07T04:34:22.054Z,20.38
2023-03-07T04:36:48.962Z,19.30
2023-03-07T04:39:15.822Z,17.52
2023-03-07T04:41:43.002Z,18.42
2023-03-07T04:44:17.250Z,17.25
2023-03-07T04:46:44.139Z,18.80
2023-03-07T04:49:11.302Z,17.80
2023-03-07T04:51:39.399Z,18.13
2023-03-07T04:54:06.506Z,17.05
2023-03-07T04:56:33.605Z,16.95
2023-03-07T04:59:01.287Z,19.00
2023-03-07T05:01:28.166Z,16.27
2023-03-07T05:03:55.084Z,18.38
2023-03-07T05:06:22.185Z,15.00
2023-03-07T05:08:52.646Z,18.38
2023-03-07T05:11:19.586Z,17.17
2023-03-07T05:13:46.786Z,17.77
2023-03-07T05:16:17.874Z,16.48
2023-03-07T05:18:44.879Z,16.40
2023-03-07T05:21:12.169Z,16.65
2023-03-07T05:23:39.733Z,17.55
2023-03-07T05:26:07.941Z,16.90
2023-03-07T05:28:34.689Z,17.35
2023-03-07T05:31:02.210Z,16.35
2023-03-07T05:33:29.148Z,17.02
2023-03-07T05:36:00.051Z,16.77
2023-03-07T05:38:27.087Z,16.13
2023-03-07T05:40:53.832Z,14.63
2023-03-07T05:43:20.493Z,15.95
2023-03-07T05:45:47.175Z,17.50
2023-03-07T05:48:14.495Z,15.93
2023-03-07T05:50:42.743Z,16.00
2023-03-07T05:53:09.925Z,15.48
2023-03-07T05:55:36.652Z,14.93
2023-03-07T05:58:03.715Z,15.35
2023-03-07T06:00:30.550Z,16.98
2023-03-07T06:03:04.005Z,13.98
2023-03-07T06:05:31.772Z,15.18
2023-03-07T06:07:58.596Z,13.98
2023-03-07T06:10:25.940Z,15.98
2023-03-07T06:12:56.072Z,14.55
2023-03-07T06:15:24.564Z,16.08
2023-03-07T06:17:56.846Z,15.57
2023-03-07T06:20:24.385Z,14.90
2023-03-07T06:22:53.743Z,15.43
2023-03-07T06:25:21.903Z,14.77
2023-03-07T06:27:49.341Z,15.57
2023-03-07T06:30:16.147Z,15.20
2023-03-07T06:32:43.021Z,14.98
2023-03-07T06:35:10.328Z,16.25
2023-03-07T06:37:37.261Z,15.95
2023-03-07T06:40:06.470Z,16.77
2023-03-07T06:42:35.630Z,15.18
2023-03-07T06:45:02.939Z,15.15
2023-03-07T06:47:29.646Z,15.10
2023-03-07T06:49:57.012Z,16.48
2023-03-07T06:52:24.136Z,15.77
2023-03-07T06:54:51.120Z,15.02
2023-03-07T06:57:17.819Z,16.05
2023-03-07T06:59:45.009Z,15.98
2023-03-07T07:02:13.812Z,16.08
2023-03-07T07:04:40.765Z,16.35
2023-03-07T07:07:07.556Z,17.52
2023-03-07T07:09:37.203Z,15.45
2023-03-07T07:12:06.050Z,16.42
2023-03-07T07:14:34.795Z,14.35
2023-03-07T07:17:02.837Z,14.07
2023-03-07T07:19:29.584Z,14.30
2023-03-07T07:22:00.961Z,15.30
2023-03-07T07:24:27.704Z,15.20
2023-03-07T07:26:55.947Z,15.25
2023-03-07T07:29:23.757Z,14.25
2023-03-07T07:31:51.587Z,14.65
2023-03-07T07:34:19.634Z,14.88
2023-03-07T07:36:47.137Z,15.23
2023-03-07T07:39:15.395Z,13.98
2023-03-07T07:41:44.684Z,13.93
2023-03-07T07:44:12.049Z,13.57
2023-03-07T07:46:51.136Z,12.48
2023-03-07T07:49:18.758Z,14.40
2023-03-07T07:51:46.110Z,14.65
2023-03-07T07:54:12.885Z,13.00
2023-03-07T07:56:40.562Z,13.88
2023-03-07T07:59:07.363Z,12.93
2023-03-07T08:01:34.271Z,13.75
2023-03-07T08:04:01.028Z,12.10
2023-03-07T08:06:28.237Z,11.60
2023-03-07T08:08:55.590Z,13.57
2023-03-07T08:11:23.297Z,12.43
2023-03-07T08:13:50.216Z,11.45
2023-03-07T08:16:18.996Z,11.27
2023-03-07T08:18:51.300Z,12.65
2023-03-07T08:21:18.339Z,11.90
2023-03-07T08:23:45.298Z,13.32
2023-03-07T08:26:13.493Z,12.35
2023-03-07T08:28:41.687Z,11.85
2023-03-07T08:31:15.912Z,13.98
2023-03-07T08:33:43.173Z,20.08
2023-03-07T08:36:10.241Z,12.20
2023-03-07T08:38:37.035Z,12.77
2023-03-07T08:41:05.811Z,14.15
2023-03-07T08:43:34.053Z,12.05
2023-03-07T08:46:00.913Z,13.10
2023-03-07T08:48:27.745Z,17.00
2023-03-07T08:50:55.367Z,11.57
2023-03-07T08:53:22.901Z,12.00
2023-03-07T08:55:50.072Z,11.30
2023-03-07T08:58:16.797Z,12.35
2023-03-07T09:00:43.574Z,11.25
2023-03-07T09:03:10.368Z,12.43
2023-03-07T09:05:38.963Z,12.30
2023-03-07T09:08:09.289Z,11.48
2023-03-07T09:10:37.049Z,12.77
2023-03-07T09:13:03.810Z,12.23
2023-03-07T09:15:30.743Z,12.07
2023-03-07T09:17:57.478Z,11.80
2023-03-07T09:20:24.948Z,11.43
2023-03-07T09:22:53.718Z,11.90
2023-03-07T09:25:20.467Z,11.85
2023-03-07T09:27:47.374Z,10.95
2023-03-07T09:30:14.928Z,11.75
2023-03-07T09:32:42.198Z,10.70
2023-03-07T09:35:10.429Z,10.77
2023-03-07T09:37:38.139Z,11.07
2023-03-07T09:40:09.554Z,11.55
2023-03-07T09:42:45.903Z,10.10
2023-03-07T09:45:21.249Z,9.85
2023-03-07T09:48:07.999Z,10.05
2023-03-07T09:50:45.551Z,10.10
2023-03-07T09:53:45.070Z,8.55
2023-03-07T09:56:25.317Z,8.10
2023-03-07T09:59:21.920Z,8.80
2023-03-07T10:02:06.129Z,7.78
2023-03-07T10:04:43.756Z,7.38
2023-03-07T10:07:12.960Z,6.95
2023-03-07T10:09:39.759Z,7.13
2023-03-07T10:12:25.662Z,6.65
2023-03-07T10:18:42.729Z,6.82
2023-03-07T10:21:18.168Z,5.88
2023-03-07T10:24:06.769Z,5.10
2023-03-07T10:26:35.913Z,5.80
2023-03-07T10:29:14.183Z,5.28
2023-03-07T10:31:43.173Z,5.05
2023-03-07T10:34:26.408Z,5.70
2023-03-07T10:37:08.402Z,6.00
2023-03-07T10:39:53.714Z,5.00
2023-03-07T10:42:22.976Z,5.15
2023-03-07T10:44:51.223Z,4.80
2023-03-07T10:47:21.167Z,4.57
2023-03-07T10:49:49.328Z,4.55
2023-03-07T10:52:33.071Z,4.60
2023-03-07T10:55:44.648Z,4.20
2023-03-07T10:58:16.103Z,4.43
2023-03-07T11:00:44.604Z,4.05
2023-03-07T11:03:52.841Z,3.72
2023-03-07T11:06:28.544Z,3.67
2023-03-07T11:08:56.293Z,3.00
2023-03-07T11:11:32.205Z,3.40
2023-03-07T11:14:10.630Z,3.15
2023-03-07T11:16:43.558Z,2.40
2023-03-07T11:19:33.437Z,3.03
2023-03-07T11:22:03.729Z,2.33
2023-03-07T11:24:38.385Z,2.30
2023-03-07T11:27:05.757Z,1.90
2023-03-07T11:29:33.841Z,2.08
2023-03-07T11:32:06.546Z,1.90
2023-03-07T11:34:53.999Z,2.20
2023-03-07T11:37:43.670Z,1.90
2023-03-07T11:40:34.085Z,2.35
2023-03-07T11:43:21.583Z,3.33
2023-03-07T11:45:51.287Z,2.00
2023-03-07T11:48:33.915Z,2.42
2023-03-07T11:51:03.081Z,2.00
2023-03-07T11:53:30.310Z,3.85
2023-03-07T11:56:31.042Z,8.27
2023-03-07T11:59:09.932Z,8.50
2023-03-07T12:01:47.697Z,4.75
2023-03-07T12:04:36.520Z,2.30
2023-03-07T12:07:44.987Z,5.07
2023-03-07T12:10:38.961Z,2.28
2023-03-07T12:13:24.375Z,2.45
2023-03-07T12:16:03.127Z,2.95
2023-03-07T12:18:58.181Z,1.80
2023-03-07T12:21:34.598Z,2.03
2023-03-07T12:24:11.356Z,1.75
2023-03-07T12:26:50.736Z,2.03
2023-03-07T12:29:35.749Z,2.05
2023-03-07T12:32:35.419Z,1.60
2023-03-07T12:35:08.567Z,1.35
2023-03-07T12:37:41.821Z,1.35
2023-03-07T12:40:42.490Z,1.45
2023-03-07T12:43:34.211Z,1.13
2023-03-07T12:46:23.690Z,1.20
2023-03-07T12:49:02.055Z,1.25
2023-03-07T12:51:37.457Z,0.80
2023-03-07T12:54:10.653Z,0.93
2023-03-07T12:57:19.429Z,1.45
2023-03-07T12:59:46.344Z,1.85
2023-03-07T13:02:24.769Z,0.82
2023-03-07T13:04:51.532Z,1.10
2023-03-07T13:07:20.355Z,0.98
2023-03-07T13:09:48.730Z,1.27
2023-03-07T13:12:25.508Z,1.20
2023-03-07T13:14:53.526Z,1.00
2023-03-07T13:17:33.364Z,1.20
2023-03-07T13:20:11.459Z,1.50
2023-03-07T13:22:38.160Z,1.30
2023-03-07T13:25:20.489Z,1.23
2023-03-07T13:27:55.802Z,1.27
2023-03-07T13:30:32.617Z,1.08
2023-03-07T13:33:00.395Z,1.00
2023-03-07T13:35:39.376Z,1.42
2023-03-07T13:38:15.586Z,1.20
2023-03-07T13:40:46.755Z,5.18
2023-03-07T13:43:19.377Z,1.10
2023-03-07T13:45:46.771Z,1.30
2023-03-07T13:48:19.623Z,2.20
2023-03-07T13:50:46.306Z,1.70
2023-03-07T13:53:20.134Z,2.13
2023-03-07T13:56:16.202Z,1.23
2023-03-07T13:58:52.428Z,1.10
2023-03-07T14:01:25.455Z,0.88
2023-03-07T14:03:58.765Z,1.45
2023-03-07T14:06:36.663Z,1.02
2023-03-07T14:09:05.694Z,1.10
2023-03-07T14:11:44.610Z,1.30
2023-03-07T14:14:19.147Z,1.48
2023-03-07T14:16:51.530Z,1.23
2023-03-07T14:19:55.541Z,1.20
2023-03-07T14:22:32.283Z,1.08
2023-03-07T14:25:21.336Z,1.20
2023-03-07T14:27:56.875Z,1.10
2023-03-07T14:30:26.097Z,1.10
2023-03-07T14:32:52.877Z,0.95
2023-03-07T14:35:43.110Z,1.00
2023-03-07T14:38:20.954Z,1.20
2023-03-07T14:41:16.720Z,1.00
2023-03-07T14:43:55.866Z,1.05
2023-03-07T14:46:35.706Z,1.40
2023-03-07T14:49:33.823Z,1.30
2023-03-07T14:52:02.585Z,1.42
2023-03-07T14:54:32.253Z,0.90
2023-03-07T14:57:00.747Z,1.40
2023-03-07T14:59:29.435Z,1.17
2023-03-07T15:01:57.783Z,1.27
2023-03-07T15:04:30.119Z,1.05
2023-03-07T15:07:02.172Z,2.03
2023-03-07T15:09:29.697Z,1.38
2023-03-07T15:12:29.204Z,1.15
2023-03-07T15:14:58.754Z,1.20
2023-03-07T15:17:32.874Z,1.45
2023-03-07T15:20:17.224Z,1.30
2023-03-07T15:22:46.841Z,1.05
2023-03-07T15:25:23.971Z,1.02
2023-03-07T15:28:04.484Z,1.45
2023-03-07T15:30:34.183Z,1.10
2023-03-07T15:33:23.245Z,0.75
2023-03-07T15:36:16.283Z,1.55
2023-03-07T15:38:48.501Z,1.25
2023-03-07T15:41:25.400Z,1.20
2023-03-07T15:44:10.610Z,1.50
2023-03-07T15:46:43.497Z,1.20
2023-03-07T15:49:23.068Z,1.50
2023-03-07T15:51:53.092Z,1.52
2023-03-07T15:54:27.202Z,1.20
2023-03-07T15:56:56.883Z,1.48
2023-03-07T15:59:38.748Z,1.23
2023-03-07T16:02:30.601Z,1.60
2023-03-07T16:04:59.944Z,1.15
2023-03-07T16:07:26.771Z,1.50
2023-03-07T16:09:53.530Z,1.65
2023-03-07T16:12:22.758Z,1.60
2023-03-07T16:14:51.150Z,2.00
2023-03-07T16:17:20.463Z,1.30
2023-03-07T16:19:47.322Z,9.13
2023-03-07T16:22:18.505Z,1.80
2023-03-07T16:24:45.415Z,1.35
2023-03-07T16:27:20.221Z,1.45
2023-03-07T16:29:47.496Z,2.35
2023-03-07T16:32:16.792Z,2.67
2023-03-07T16:34:44.517Z,1.58
2023-03-07T16:37:11.515Z,6.00
2023-03-07T16:39:38.221Z,1.73
2023-03-07T16:42:06.827Z,11.90
2023-03-07T16:44:38.183Z,4.07
2023-03-07T16:47:23.132Z,4.57
2023-03-07T16:49:51.073Z,2.25
2023-03-07T16:52:17.763Z,1.77
2023-03-07T16:54:44.583Z,1.90
2023-03-07T16:57:16.260Z,2.10
2023-03-07T16:59:47.193Z,2.20
2023-03-07T17:02:16.934Z,1.92
2023-03-07T17:04:44.728Z,2.10
2023-03-07T17:07:16.852Z,1.70
2023-03-07T17:09:43.638Z,2.42
2023-03-07T17:12:10.728Z,1.90
2023-03-07T17:14:37.535Z,2.08
2023-03-07T17:17:04.656Z,1.70
2023-03-07T17:19:32.919Z,2.30
2023-03-07T17:22:01.287Z,2.10
2023-03-07T17:24:29.388Z,2.13
2023-03-07T17:26:57.955Z,1.80
2023-03-07T17:29:40.164Z,1.75
2023-03-07T17:32:07.263Z,2.05
2023-03-07T17:34:35.021Z,1.77
2023-03-07T17:37:02.024Z,2.40
2023-03-07T17:39:30.362Z,2.10
2023-03-07T17:41:58.226Z,3.45
2023-03-07T17:44:25.301Z,2.47
2023-03-07T17:46:52.578Z,2.45
2023-03-07T17:49:20.334Z,1.95
2023-03-07T17:51:48.839Z,1.80
2023-03-07T17:54:16.296Z,2.05
2023-03-07T17:56:43.193Z,2.00
2023-03-07T17:59:10.312Z,2.47
2023-03-07T18:01:37.633Z,2.10
2023-03-07T18:04:06.507Z,2.20
2023-03-07T18:06:34.204Z,1.92
2023-03-07T18:09:01.609Z,2.85
2023-03-07T18:11:31.020Z,2.40
2023-03-07T18:13:58.071Z,2.08
2023-03-07T18:16:25.466Z,2.60
2023-03-07T18:18:59.336Z,2.05
2023-03-07T18:21:29.837Z,2.05
2023-03-07T18:23:57.140Z,1.63
2023-03-07T18:26:24.085Z,1.45
2023-03-07T18:28:53.313Z,1.80
2023-03-07T18:31:25.306Z,1.83
2023-03-07T18:33:53.241Z,1.90
2023-03-07T18:36:21.634Z,1.40
2023-03-07T18:38:48.657Z,1.38
2023-03-07T18:41:17.556Z,1.63
2023-03-07T18:43:45.043Z,1.50
2023-03-07T18:46:14.296Z,2.45
2023-03-07T18:48:41.229Z,1.50
2023-03-07T18:51:10.985Z,2.00
2023-03-07T18:53:38.476Z,1.40
2023-03-07T18:56:10.760Z,1.48
2023-03-07T18:58:37.887Z,2.45
2023-03-07T19:01:16.290Z,2.25
2023-03-07T19:03:44.213Z,1.95
2023-03-07T19:06:12.405Z,1.55
2023-03-07T19:08:39.789Z,1.65
2023-03-07T19:11:11.003Z,1.55
2023-03-07T19:13:40.628Z,1.55
2023-03-07T19:16:12.830Z,1.45
2023-03-07T19:18:40.224Z,1.70
2023-03-07T19:21:14.539Z,1.50
2023-03-07T19:23:41.524Z,8.15
2023-03-07T19:26:10.784Z,4.53
2023-03-07T19:28:37.576Z,8.05
2023-03-07T19:31:09.369Z,2.08
2023-03-07T19:33:36.887Z,1.55
2023-03-07T19:36:06.225Z,3.83
2023-03-07T19:38:36.405Z,2.67
2023-03-07T19:41:04.068Z,1.60
2023-03-07T19:43:30.889Z,1.75
2023-03-07T19:46:01.249Z,1.38
2023-03-07T19:48:28.005Z,1.52
2023-03-07T19:50:54.756Z,1.63
2023-03-07T19:53:21.564Z,1.40
2023-03-07T19:55:51.023Z,2.20
2023-03-07T19:58:17.754Z,1.40
2023-03-07T20:00:46.579Z,1.30
2023-03-07T20:03:14.658Z,1.45
2023-03-07T20:05:43.163Z,1.33
2023-03-07T20:08:10.519Z,1.40
2023-03-07T20:10:41.095Z,1.50
2023-03-07T20:15:35.572Z,1.50
2023-03-07T20:18:06.087Z,6.63
2023-03-07T20:20:36.130Z,2.25
2023-03-07T20:23:02.869Z,1.80
2023-03-07T20:25:30.137Z,1.75
2023-03-07T20:27:57.201Z,1.50
2023-03-07T20:30:23.956Z,1.50
2023-03-07T20:32:51.095Z,1.73
2023-03-07T20:35:18.096Z,1.67
2023-03-07T20:37:44.766Z,1.70
2023-03-07T20:40:12.390Z,2.30
2023-03-07T20:42:39.074Z,2.03
2023-03-07T20:45:06.658Z,2.05
2023-03-07T20:47:36.432Z,2.00
2023-03-07T20:50:03.743Z,3.13
2023-03-07T20:52:30.613Z,2.20
2023-03-07T20:54:57.344Z,1.95
2023-03-07T20:57:24.121Z,2.38
2023-03-07T20:59:51.031Z,3.22
2023-03-07T21:02:17.692Z,2.08
2023-03-07T21:04:44.369Z,2.47
2023-03-07T21:07:11.074Z,2.88
2023-03-07T21:09:37.780Z,2.25
2023-03-07T21:12:05.553Z,2.38
2023-03-07T21:14:32.416Z,2.50
2023-03-07T21:16:59.261Z,2.33
2023-03-07T21:19:26.100Z,2.40
2023-03-07T21:21:52.762Z,2.33
2023-03-07T21:24:19.475Z,2.92
2023-03-07T21:26:47.278Z,2.67
2023-03-07T21:29:14.227Z,2.70
2023-03-07T21:31:41.255Z,2.70
2023-03-07T21:34:12.307Z,3.10
2023-03-07T21:36:39.441Z,2.17
2023-03-07T21:39:08.128Z,2.40
2023-03-07T21:41:35.022Z,2.80
2023-03-07T21:44:02.253Z,2.42
2023-03-07T21:46:29.030Z,3.65
2023-03-07T21:48:59.339Z,5.25
2023-03-07T21:51:26.391Z,2.88
2023-03-07T21:53:53.070Z,2.55
2023-03-07T21:56:20.291Z,2.65
2023-03-07T21:58:49.457Z,2.70
2023-03-07T22:01:25.924Z,2.70
2023-03-07T22:03:58.085Z,2.92
2023-03-07T22:06:27.159Z,2.75
2023-03-07T22:08:54.214Z,2.80
2023-03-07T22:11:22.503Z,2.38
2023-03-07T22:13:49.351Z,2.63
2023-03-07T22:16:18.320Z,3.78
2023-03-07T22:18:45.018Z,2.33
2023-03-07T22:21:14.384Z,2.97
2023-03-07T22:23:42.235Z,3.38
2023-03-07T22:26:10.729Z,3.35
2023-03-07T22:28:38.050Z,2.28
2023-03-07T22:31:06.865Z,2.80
2023-03-07T22:33:34.134Z,3.15
2023-03-07T22:36:03.445Z,2.65
2023-03-07T22:38:30.567Z,2.53
2023-03-07T22:41:01.974Z,2.88
2023-03-07T22:43:31.578Z,2.80
2023-03-07T22:45:58.387Z,2.70
2023-03-07T22:48:25.713Z,3.53
2023-03-07T22:50:54.508Z,6.32
2023-03-07T22:53:21.553Z,3.40
2023-03-07T22:55:48.503Z,2.75
2023-03-07T22:58:15.406Z,2.17
2023-03-07T23:00:43.982Z,2.72
2023-03-07T23:03:11.214Z,2.55
2023-03-07T23:05:38.042Z,2.33
2023-03-07T23:08:05.184Z,1.88
2023-03-07T23:10:32.470Z,2.60
2023-03-07T23:12:59.598Z,2.47
2023-03-07T23:15:26.489Z,2.40
2023-03-07T23:17:53.548Z,2.38
2023-03-07T23:20:20.373Z,2.13
2023-03-07T23:22:49.874Z,2.53
2023-03-07T23:25:16.555Z,2.80
2023-03-07T23:27:43.274Z,3.63
2023-03-07T23:30:10.673Z,2.60
2023-03-07T23:32:37.505Z,2.42
2023-03-07T23:35:04.573Z,2.40
2023-03-07T23:37:32.065Z,2.55
2023-03-07T23:40:00.896Z,2.88
2023-03-07T23:42:27.724Z,2.28
2023-03-07T23:44:55.267Z,2.75
2023-03-07T23:47:22.239Z,1.90
2023-03-07T23:49:49.125Z,2.20
2023-03-07T23:52:15.947Z,2.10
2023-03-07T23:54:45.341Z,2.35
2023-03-07T23:57:12.536Z,2.33
2023-03-07T23:59:39.369Z,1.98
